createdAt,value
2023-02-08T00:02:01.372Z,-8.36
2023-02-08T00:04:27.761Z,-8.37
2023-02-08T00:06:54.167Z,-8.38
2023-02-08T00:09:20.526Z,-8.36
2023-02-08T00:11:46.944Z,-8.37
2023-02-08T00:14:13.342Z,-8.36
2023-02-08T00:16:39.762Z,-8.33
2023-02-08T00:19:06.120Z,-8.34
2023-02-08T00:21:32.595Z,-8.38
2023-02-08T00:23:58.934Z,-8.35
2023-02-08T00:26:25.406Z,-8.29
2023-02-08T00:28:51.763Z,-8.30
2023-02-08T00:31:18.407Z,-8.23
2023-02-08T00:33:44.824Z,-8.13
2023-02-08T00:36:11.487Z,-8.06
2023-02-08T00:38:38.006Z,-8.03
2023-02-08T00:41:04.928Z,-7.95
2023-02-08T00:43:31.603Z,-7.90
2023-02-08T00:45:58.661Z,-7.83
2023-02-08T00:48:25.790Z,-7.84
2023-02-08T00:51:02.982Z,-7.86
2023-02-08T00:53:29.673Z,-7.90
2023-02-08T00:55:56.528Z,-7.94
2023-02-08T00:58:23.325Z,-7.93
2023-02-08T01:00:53.165Z,-7.93
2023-02-08T01:03:20.268Z,-7.94
2023-02-08T01:05:46.636Z,-8.03
2023-02-08T01:08:13.075Z,-8.13
2023-02-08T01:10:39.699Z,-8.21
2023-02-08T01:13:06.270Z,-8.29
2023-02-08T01:15:32.669Z,-8.36
2023-02-08T01:17:59.064Z,-8.39
2023-02-08T01:20:25.516Z,-8.44
2023-02-08T01:22:51.921Z,-8.44
2023-02-08T01:25:18.308Z,-8.48
2023-02-08T01:27:44.732Z,-8.52
2023-02-08T01:30:11.408Z,-8.53
2023-02-08T01:32:37.884Z,-8.52
2023-02-08T01:35:04.463Z,-8.56
2023-02-08T01:37:30.885Z,-8.61
2023-02-08T01:39:57.319Z,-8.65
2023-02-08T01:42:23.757Z,-8.66
2023-02-08T01:45:05.354Z,-8.67
2023-02-08T01:47:31.809Z,-8.67
2023-02-08T01:49:58.261Z,-8.68
2023-02-08T01:52:26.823Z,-8.70
2023-02-08T01:54:56.572Z,-8.66
2023-02-08T01:57:23.454Z,-8.66
2023-02-08T01:59:52.495Z,-8.66
2023-02-08T02:02:21.027Z,-8.67
2023-02-08T02:04:48.657Z,-8.69
2023-02-08T02:07:16.345Z,-8.66
2023-02-08T02:09:45.612Z,-8.62
2023-02-08T02:12:12.375Z,-8.61
2023-02-08T02:14:39.340Z,-8.55
2023-02-08T02:17:06.296Z,-8.50
2023-02-08T02:19:48.123Z,-8.42
2023-02-08T02:22:32.920Z,-8.34
2023-02-08T02:25:11.871Z,-8.24
2023-02-08T02:27:41.070Z,-8.14
2023-02-08T02:30:13.514Z,-8.10
2023-02-08T02:32:50.832Z,-8.08
2023-02-08T02:35:40.547Z,-8.09
2023-02-08T02:38:14.431Z,-8.05
2023-02-08T02:40:46.143Z,-8.00
2023-02-08T02:43:35.139Z,-7.95
2023-02-08T02:46:07.363Z,-7.88
2023-02-08T02:48:39.728Z,-7.86
2023-02-08T02:51:09.901Z,-7.81
2023-02-08T02:53:36.279Z,-7.70
2023-02-08T02:56:06.603Z,-7.57
2023-02-08T02:58:33.220Z,-7.51
2023-02-08T03:00:59.747Z,-7.47
2023-02-08T03:03:27.436Z,-7.46
2023-02-08T03:05:58.560Z,-7.47
2023-02-08T03:08:40.287Z,-7.40
2023-02-08T03:11:15.624Z,-7.39
2023-02-08T03:13:45.041Z,-7.42
2023-02-08T03:16:11.407Z,-7.46
2023-02-08T03:18:46.962Z,-7.51
2023-02-08T03:21:16.331Z,-7.56
2023-02-08T03:24:01.640Z,-7.62
2023-02-08T03:26:28.071Z,-7.65
2023-02-08T03:28:57.218Z,-7.58
2023-02-08T03:31:28.683Z,-7.58
2023-02-08T03:34:01.724Z,-7.59
2023-02-08T03:36:35.210Z,-7.59
2023-02-08T03:39:03.544Z,-7.58
2023-02-08T03:41:33.775Z,-7.55
2023-02-08T03:44:03.542Z,-7.54
2023-02-08T03:46:34.938Z,-7.51
2023-02-08T03:49:09.363Z,-7.53
2023-02-08T03:51:39.059Z,-7.54
2023-02-08T03:54:07.672Z,-7.50
2023-02-08T03:56:34.046Z,-7.49
2023-02-08T03:59:03.606Z,-7.48
2023-02-08T04:01:32.237Z,-7.44
2023-02-08T04:03:59.897Z,-7.43
2023-02-08T04:06:26.649Z,-7.47
2023-02-08T04:08:53.081Z,-7.53
2023-02-08T04:11:19.876Z,-7.57
2023-02-08T04:13:46.227Z,-7.60
2023-02-08T04:16:12.831Z,-7.60
2023-02-08T04:18:39.214Z,-7.60
2023-02-08T04:21:05.905Z,-7.54
2023-02-08T04:23:32.287Z,-7.50
2023-02-08T04:25:58.747Z,-7.53
2023-02-08T04:28:25.095Z,-7.53
2023-02-08T04:30:51.592Z,-7.50
2023-02-08T04:33:17.989Z,-7.43
2023-02-08T04:35:44.373Z,-7.39
2023-02-08T04:38:10.895Z,-7.42
2023-02-08T04:40:37.287Z,-7.28
2023-02-08T04:43:03.975Z,-7.28
2023-02-08T04:45:32.090Z,-7.21
2023-02-08T04:47:59.274Z,-7.19
2023-02-08T04:50:26.141Z,-7.20
2023-02-08T04:52:52.579Z,-7.25
2023-02-08T04:55:18.953Z,-7.30
2023-02-08T04:57:45.336Z,-7.33
2023-02-08T05:00:12.094Z,-7.30
2023-02-08T05:02:38.523Z,-7.27
2023-02-08T05:05:05.231Z,-7.31
2023-02-08T05:07:31.678Z,-7.33
2023-02-08T05:09:58.053Z,-7.39
2023-02-08T05:12:24.466Z,-7.41
2023-02-08T05:14:50.896Z,-7.40
2023-02-08T05:17:17.263Z,-7.40
2023-02-08T05:19:43.659Z,-7.39
2023-02-08T05:22:10.005Z,-7.41
2023-02-08T05:24:36.456Z,-7.45
2023-02-08T05:27:02.810Z,-7.50
2023-02-08T05:29:29.261Z,-7.54
2023-02-08T05:31:55.709Z,-7.59
2023-02-08T05:34:22.177Z,-7.59
2023-02-08T05:36:48.554Z,-7.56
2023-02-08T05:39:14.975Z,-7.57
2023-02-08T05:41:41.333Z,-7.55
2023-02-08T05:44:07.764Z,-7.54
2023-02-08T05:46:35.460Z,-7.54
2023-02-08T05:49:03.529Z,-7.52
2023-02-08T05:51:29.862Z,-7.52
2023-02-08T05:53:56.237Z,-7.45
2023-02-08T05:56:22.629Z,-7.44
2023-02-08T05:58:49.085Z,-7.39
2023-02-08T06:01:15.478Z,-7.41
2023-02-08T06:03:41.927Z,-7.42
2023-02-08T06:06:11.217Z,-7.38
2023-02-08T06:08:38.695Z,-7.33
2023-02-08T06:11:05.429Z,-7.27
2023-02-08T06:13:32.024Z,-7.25
2023-02-08T06:15:58.409Z,-7.25
2023-02-08T06:18:24.858Z,-7.25
2023-02-08T06:20:54.717Z,-7.19
2023-02-08T06:23:21.385Z,-7.22
2023-02-08T06:25:47.820Z,-7.21
2023-02-08T06:28:14.270Z,-7.25
2023-02-08T06:30:41.260Z,-7.31
2023-02-08T06:33:07.856Z,-7.27
2023-02-08T06:35:34.292Z,-7.24
2023-02-08T06:38:00.868Z,-7.16
2023-02-08T06:40:27.381Z,-7.12
2023-02-08T06:42:53.825Z,-7.11
2023-02-08T06:45:20.230Z,-7.10
2023-02-08T06:47:46.615Z,-7.10
2023-02-08T06:50:14.804Z,-7.01
2023-02-08T06:52:41.194Z,-6.98
2023-02-08T06:55:07.739Z,-6.91
2023-02-08T06:57:34.105Z,-6.86
2023-02-08T07:00:00.487Z,-6.83
2023-02-08T07:02:27.735Z,-6.76
2023-02-08T07:04:54.353Z,-6.70
2023-02-08T07:07:20.761Z,-6.65
2023-02-08T07:09:47.223Z,-6.60
2023-02-08T07:12:13.758Z,-6.48
2023-02-08T07:14:41.604Z,-6.36
2023-02-08T07:17:08.381Z,-6.23
2023-02-08T07:19:34.757Z,-6.07
2023-02-08T07:22:07.196Z,-5.91
2023-02-08T07:24:37.914Z,-5.69
2023-02-08T07:27:05.157Z,-5.55
2023-02-08T07:29:32.162Z,-5.40
2023-02-08T07:31:59.330Z,-5.22
2023-02-08T07:34:25.937Z,-4.95
2023-02-08T07:36:52.404Z,-4.77
2023-02-08T07:39:18.825Z,-4.51
2023-02-08T07:41:45.275Z,-4.39
2023-02-08T07:44:11.727Z,-4.18
2023-02-08T07:46:38.177Z,-3.97
2023-02-08T07:49:04.725Z,-3.85
2023-02-08T07:51:36.287Z,-3.64
2023-02-08T07:54:27.646Z,-3.49
2023-02-08T07:57:03.681Z,-3.05
2023-02-08T08:02:42.360Z,-2.75
2023-02-08T08:05:31.913Z,-2.47
2023-02-08T08:11:25.722Z,-2.09
2023-02-08T08:27:35.181Z,-1.64
2023-02-08T08:33:53.039Z,-1.79
2023-02-08T08:42:41.350Z,-1.16
2023-02-08T08:45:08.937Z,-0.85
2023-02-08T08:47:35.313Z,-0.88
2023-02-08T08:50:01.934Z,-0.58
2023-02-08T08:52:28.445Z,0.03
2023-02-08T08:54:55.108Z,0.08
2023-02-08T08:57:24.341Z,0.35
2023-02-08T08:59:50.901Z,0.39
2023-02-08T09:02:17.371Z,0.49
2023-02-08T09:04:43.834Z,0.45
2023-02-08T09:07:10.431Z,0.54
2023-02-08T09:09:36.924Z,0.68
2023-02-08T09:12:03.612Z,1.05
2023-02-08T09:14:30.024Z,0.72
2023-02-08T09:16:56.375Z,0.28
2023-02-08T09:19:22.786Z,-0.36
2023-02-08T09:21:49.166Z,-0.61
2023-02-08T09:24:16.510Z,-1.00
2023-02-08T09:26:42.940Z,-1.43
2023-02-08T09:29:09.357Z,-0.76
2023-02-08T09:31:37.844Z,-0.58
2023-02-08T09:34:05.067Z,-1.16
2023-02-08T09:36:36.422Z,-1.19
2023-02-08T09:39:14.564Z,-1.26
2023-02-08T09:41:42.644Z,-1.42
2023-02-08T09:44:14.963Z,-1.00
2023-02-08T09:46:44.479Z,0.15
2023-02-08T09:49:16.802Z,-0.11
2023-02-08T09:51:50.981Z,-0.67
2023-02-08T09:54:30.380Z,-1.01
2023-02-08T09:56:58.257Z,-1.42
2023-02-08T09:59:29.447Z,-1.60
2023-02-08T10:02:11.064Z,-1.59
2023-02-08T10:04:48.295Z,-1.42
2023-02-08T10:07:14.704Z,-1.62
2023-02-08T10:09:41.088Z,-1.69
2023-02-08T10:12:16.582Z,-1.93
2023-02-08T10:14:43.443Z,-1.79
2023-02-08T10:17:19.756Z,-1.38
2023-02-08T10:20:06.369Z,-1.54
2023-02-08T10:22:48.429Z,-1.30
2023-02-08T10:25:25.481Z,-1.54
2023-02-08T10:28:06.915Z,-1.11
2023-02-08T10:30:33.395Z,-0.80
2023-02-08T10:33:01.728Z,-0.24
2023-02-08T10:35:32.345Z,0.14
2023-02-08T10:41:43.195Z,8.27
2023-02-08T10:44:15.447Z,12.10
2023-02-08T10:46:50.019Z,14.42
2023-02-08T10:49:35.012Z,16.18
2023-02-08T10:52:02.483Z,17.53
2023-02-08T10:54:28.980Z,18.44
2023-02-08T10:56:57.601Z,19.19
2023-02-08T10:59:26.157Z,19.72
2023-02-08T11:01:53.124Z,20.14
2023-02-08T11:04:19.705Z,20.47
2023-02-08T11:06:47.374Z,20.70
2023-02-08T11:09:24.555Z,20.92
2023-02-08T11:11:52.859Z,21.10
2023-02-08T11:14:22.788Z,21.25
2023-02-08T11:16:52.957Z,21.35
2023-02-08T11:19:31.444Z,21.44
2023-02-08T11:21:59.017Z,21.53
2023-02-08T11:24:26.995Z,21.54
2023-02-08T11:26:53.595Z,21.53
2023-02-08T11:29:25.573Z,21.53
2023-02-08T11:31:55.050Z,21.54
2023-02-08T11:39:18.689Z,20.51
2023-02-08T11:41:51.963Z,20.41
2023-02-08T11:48:04.427Z,20.21
2023-02-08T11:52:03.398Z,20.20
2023-02-08T11:54:04.677Z,20.42
2023-02-08T12:21:29.622Z,21.80
2023-02-08T12:24:17.519Z,22.01
2023-02-08T12:26:52.991Z,22.09
2023-02-08T12:29:46.856Z,22.03
2023-02-08T12:32:14.497Z,22.05
2023-02-08T12:35:26.781Z,21.98
2023-02-08T12:38:33.485Z,21.62
2023-02-08T12:41:14.927Z,21.48
2023-02-08T12:44:15.244Z,21.33
2023-02-08T12:51:27.880Z,23.08
2023-02-08T12:53:56.882Z,22.84
2023-02-08T12:56:53.648Z,22.47
2023-02-08T12:59:30.264Z,22.08
2023-02-08T13:02:01.782Z,21.85
2023-02-08T13:04:39.599Z,21.67
2023-02-08T13:07:13.188Z,21.56
2023-02-08T13:09:48.504Z,21.48
2023-02-08T13:12:18.013Z,21.42
2023-02-08T13:17:13.870Z,21.54
2023-02-08T13:23:53.135Z,12.55
2023-02-08T13:26:31.753Z,10.70
2023-02-08T13:29:01.492Z,8.77
2023-02-08T13:31:31.646Z,7.51
2023-02-08T13:34:02.215Z,6.61
2023-02-08T13:36:31.173Z,6.04
2023-02-08T13:38:59.014Z,5.96
2023-02-08T13:41:26.487Z,6.13
2023-02-08T13:43:58.714Z,6.66
2023-02-08T13:46:27.005Z,8.24
2023-02-08T13:48:55.203Z,8.20
2023-02-08T13:51:30.722Z,8.17
2023-02-08T13:53:57.237Z,8.21
2023-02-08T13:56:49.796Z,8.14
2023-02-08T13:59:27.979Z,9.80
2023-02-08T14:02:12.962Z,9.90
2023-02-08T14:04:40.399Z,10.20
2023-02-08T14:07:06.729Z,12.97
2023-02-08T14:09:51.668Z,12.05
2023-02-08T14:12:24.494Z,15.85
2023-02-08T14:15:09.695Z,15.77
2023-02-08T14:17:36.236Z,13.61
2023-02-08T14:20:05.424Z,8.28
2023-02-08T14:22:37.375Z,5.53
2023-02-08T14:25:06.392Z,3.23
2023-02-08T14:27:41.193Z,2.75
2023-02-08T14:30:07.717Z,2.07
2023-02-08T14:32:41.039Z,2.01
2023-02-08T14:35:13.532Z,1.15
2023-02-08T14:37:40.499Z,0.87
2023-02-08T14:40:25.289Z,0.69
2023-02-08T14:43:02.453Z,0.58
2023-02-08T14:45:36.192Z,0.52
2023-02-08T14:48:41.319Z,0.40
2023-02-08T14:51:10.596Z,0.29
2023-02-08T14:53:44.220Z,0.16
2023-02-08T14:56:26.000Z,0.06
2023-02-08T14:59:04.556Z,0.01
2023-02-08T15:01:50.923Z,-0.07
2023-02-08T15:04:20.282Z,-0.15
2023-02-08T15:07:05.373Z,-0.24
2023-02-08T15:09:35.280Z,-0.29
2023-02-08T15:12:02.907Z,-0.28
2023-02-08T15:14:30.474Z,-0.36
2023-02-08T15:16:56.915Z,-0.38
2023-02-08T15:19:26.028Z,-0.42
2023-02-08T15:21:52.494Z,-0.48
2023-02-08T15:24:22.441Z,-0.54
2023-02-08T15:26:53.287Z,-0.56
2023-02-08T15:29:19.633Z,-0.58
2023-02-08T15:31:46.549Z,-0.59
2023-02-08T15:34:13.004Z,-0.63
2023-02-08T15:36:40.882Z,-0.66
2023-02-08T15:39:15.071Z,-0.70
2023-02-08T15:41:41.468Z,-0.73
2023-02-08T15:44:16.954Z,-0.77
2023-02-08T15:46:44.246Z,-0.82
2023-02-08T15:49:18.305Z,-0.87
2023-02-08T15:51:45.480Z,-0.89
2023-02-08T15:54:16.746Z,-0.91
2023-02-08T15:58:46.319Z,-0.93
2023-02-08T16:01:17.241Z,-0.99
2023-02-08T16:03:47.351Z,-1.08
2023-02-08T16:06:13.804Z,-1.09
2023-02-08T16:08:41.403Z,-1.14
2023-02-08T16:11:12.622Z,-1.19
2023-02-08T16:18:58.459Z,19.28
2023-02-08T16:21:24.940Z,20.13
2023-02-08T16:23:57.553Z,20.58
2023-02-08T16:26:28.664Z,20.87
2023-02-08T16:29:01.235Z,21.01
2023-02-08T16:31:31.040Z,21.27
2023-02-08T16:33:59.706Z,21.24
2023-02-08T16:36:32.514Z,21.30
2023-02-08T16:39:14.071Z,21.33
2023-02-08T16:42:15.775Z,21.43
2023-02-08T16:45:17.250Z,21.42
2023-02-08T16:47:55.111Z,21.54
2023-02-08T16:50:27.787Z,21.38
2023-02-08T16:52:59.707Z,21.36
2023-02-08T16:55:29.965Z,21.30
2023-02-08T16:57:58.135Z,21.29
2023-02-08T17:00:31.054Z,21.30
2023-02-08T17:02:58.182Z,21.40
2023-02-08T17:05:28.737Z,21.35
2023-02-08T17:07:55.702Z,21.35
2023-02-08T17:10:31.104Z,21.34
2023-02-08T17:13:17.509Z,21.36
2023-02-08T17:15:47.884Z,21.38
2023-02-08T17:18:14.821Z,21.36
2023-02-08T17:20:41.788Z,21.39
2023-02-08T17:23:10.047Z,21.50
2023-02-08T17:25:36.743Z,21.53
2023-02-08T17:28:11.605Z,22.58
2023-02-08T17:33:50.293Z,22.82
2023-02-08T17:36:17.643Z,22.71
2023-02-08T17:38:46.303Z,23.12
2023-02-08T17:45:32.434Z,23.54
2023-02-08T17:49:59.799Z,23.36
2023-02-08T17:53:54.778Z,23.15
2023-02-08T17:56:27.704Z,22.89
2023-02-08T17:58:55.871Z,22.56
2023-02-08T18:01:25.450Z,22.25
2023-02-08T18:03:53.215Z,22.01
2023-02-08T18:06:20.064Z,21.81
2023-02-08T18:08:46.629Z,21.65
2023-02-08T18:11:18.025Z,21.54
2023-02-08T18:13:45.479Z,21.44
2023-02-08T18:16:18.969Z,21.35
2023-02-08T18:18:46.180Z,21.29
2023-02-08T18:21:21.529Z,21.20
2023-02-08T18:23:51.864Z,21.19
2023-02-08T18:26:21.286Z,21.15
2023-02-08T18:28:48.586Z,21.11
2023-02-08T18:31:16.756Z,21.08
2023-02-08T18:33:43.922Z,21.05
2023-02-08T18:36:13.499Z,21.04
2023-02-08T18:38:40.323Z,21.03
2023-02-08T18:41:10.996Z,21.01
2023-02-08T18:43:37.828Z,20.99
2023-02-08T18:46:05.770Z,20.97
2023-02-08T18:48:32.238Z,20.95
2023-02-08T18:50:59.470Z,20.95
2023-02-08T18:53:29.242Z,20.92
2023-02-08T18:56:00.077Z,20.90
2023-02-08T18:58:26.904Z,20.91
2023-02-08T19:00:53.667Z,20.91
2023-02-08T19:03:20.471Z,20.90
2023-02-08T19:05:47.238Z,20.89
2023-02-08T19:08:14.320Z,20.88
2023-02-08T19:10:41.182Z,20.82
2023-02-08T19:13:07.992Z,20.80
2023-02-08T19:16:32.985Z,20.85
2023-02-08T19:19:01.135Z,20.87
2023-02-08T19:21:31.296Z,20.89
2023-02-08T19:23:58.264Z,20.89
2023-02-08T19:26:30.603Z,20.89
2023-02-08T19:28:59.512Z,20.89
2023-02-08T19:31:27.902Z,20.89
2023-02-08T19:33:58.579Z,20.89
2023-02-08T19:36:27.758Z,20.89
2023-02-08T19:38:55.367Z,20.87
2023-02-08T19:41:25.207Z,20.87
2023-02-08T19:43:52.153Z,20.84
2023-02-08T19:46:22.383Z,20.84
2023-02-08T19:48:49.450Z,20.84
2023-02-08T19:51:15.875Z,20.82
2023-02-08T19:53:42.350Z,20.81
2023-02-08T19:56:11.466Z,20.80
2023-02-08T19:58:38.073Z,20.80
2023-02-08T20:01:18.184Z,20.79
2023-02-08T20:03:44.961Z,20.79
2023-02-08T20:06:14.428Z,20.78
2023-02-08T20:08:40.866Z,20.77
2023-02-08T20:11:07.217Z,20.76
2023-02-08T20:13:33.602Z,20.76
2023-02-08T20:16:00.110Z,20.75
2023-02-08T20:18:26.573Z,20.75
2023-02-08T20:21:00.299Z,20.74
2023-02-08T20:23:26.940Z,20.73
2023-02-08T20:26:02.881Z,20.73
2023-02-08T20:28:29.312Z,20.70
2023-02-08T20:30:55.832Z,20.70
2023-02-08T20:33:22.244Z,20.69
2023-02-08T20:35:48.703Z,20.69
2023-02-08T20:38:15.115Z,20.69
2023-02-08T20:40:41.674Z,20.69
2023-02-08T20:43:08.191Z,20.68
2023-02-08T20:45:34.556Z,20.68
2023-02-08T20:48:00.974Z,20.67
2023-02-08T20:50:27.922Z,20.66
2023-02-08T20:52:54.339Z,20.67
2023-02-08T20:55:20.733Z,20.65
2023-02-08T20:57:47.210Z,20.65
2023-02-08T21:00:13.925Z,20.65
2023-02-08T21:02:41.911Z,20.64
2023-02-08T21:05:08.333Z,20.65
2023-02-08T21:07:34.749Z,20.65
2023-02-08T21:10:03.935Z,20.67
2023-02-08T21:12:32.014Z,20.69
2023-02-08T21:14:59.464Z,20.72
2023-02-08T21:17:25.933Z,20.75
2023-02-08T21:19:52.385Z,20.80
2023-02-08T21:22:18.832Z,20.80
2023-02-08T21:24:45.213Z,20.84
2023-02-08T21:27:12.932Z,20.83
2023-02-08T21:29:39.312Z,20.92
2023-02-08T21:32:05.910Z,20.94
2023-02-08T21:34:32.308Z,20.96
2023-02-08T21:36:58.717Z,20.97
2023-02-08T21:39:25.083Z,20.95
2023-02-08T21:41:52.252Z,20.97
2023-02-08T21:46:17.862Z,21.25
2023-02-08T21:49:02.965Z,21.05
2023-02-08T21:51:48.309Z,20.89
2023-02-08T21:54:37.114Z,20.83
2023-02-08T21:57:05.947Z,20.80
2023-02-08T21:59:39.643Z,20.77
2023-02-08T22:02:13.922Z,20.76
2023-02-08T22:04:41.988Z,20.77
2023-02-08T22:07:08.539Z,20.74
2023-02-08T22:09:36.427Z,20.73
2023-02-08T22:12:02.995Z,20.72
2023-02-08T22:14:29.509Z,20.72
2023-02-08T22:16:55.990Z,20.72
2023-02-08T22:19:22.480Z,20.68
2023-02-08T22:21:49.005Z,20.65
2023-02-08T22:24:15.477Z,20.65
2023-02-08T22:26:43.827Z,20.64
2023-02-08T22:29:10.537Z,20.61
2023-02-08T22:31:37.314Z,20.59
2023-02-08T22:34:04.539Z,20.58
2023-02-08T22:36:31.469Z,20.56
2023-02-08T22:38:58.006Z,20.55
2023-02-08T22:41:24.517Z,20.53
2023-02-08T22:43:51.086Z,20.50
2023-02-08T22:46:17.721Z,20.49
2023-02-08T22:48:44.263Z,20.48
2023-02-08T22:51:14.705Z,20.45
2023-02-08T22:53:41.542Z,20.42
2023-02-08T22:56:08.442Z,20.40
2023-02-08T22:58:35.588Z,20.37
2023-02-08T23:01:02.174Z,20.34
2023-02-08T23:03:28.747Z,20.31
2023-02-08T23:05:55.291Z,20.29
2023-02-08T23:08:22.428Z,20.28
2023-02-08T23:10:49.197Z,20.26
2023-02-08T23:13:15.961Z,20.24
2023-02-08T23:15:44.781Z,20.23
2023-02-08T23:18:11.676Z,20.21
2023-02-08T23:20:40.552Z,20.21
2023-02-08T23:23:07.502Z,20.20
2023-02-08T23:25:34.423Z,20.20
2023-02-08T23:28:01.137Z,20.19
2023-02-08T23:30:27.786Z,20.18
2023-02-08T23:32:54.541Z,20.15
2023-02-08T23:35:21.059Z,20.14
2023-02-08T23:37:47.596Z,20.12
2023-02-08T23:40:14.281Z,20.11
2023-02-08T23:42:40.942Z,20.10
2023-02-08T23:45:08.156Z,20.07
2023-02-08T23:47:34.803Z,20.06
2023-02-08T23:50:01.354Z,20.05
2023-02-08T23:52:27.840Z,20.03
2023-02-08T23:54:54.377Z,20.02
2023-02-08T23:57:20.863Z,20.01
2023-02-08T23:59:47.561Z,19.99
